Time;durP1;ratioP1;P1;durP2;ratioP2;P2;SDS_P1;SDS_P2;PMS_P1;PMS_P2;Temp;Humidity;BMP_temperature;BMP_pressure;BME280_temperature;BME280_humidity;BME280_pressure;Samples;Min_cycle;Max_cycle;Signal;HPM_P1;HPM_P2
2021/12/13 00:02:26;;;;;;;1999.90;999.90;;;;;;;2.09;64.36;101870.59;4942000;28;98322;-72
2021/12/13 00:05:03;;;;;;;1999.90;999.90;;;;;;;2.10;64.65;101872.44;4928147;28;97263;-72
2021/12/13 00:07:33;;;;;;;1999.90;999.90;;;;;;;2.14;64.19;101876.19;4939458;28;97511;-73
2021/12/13 00:10:11;;;;;;;1999.90;999.90;;;;;;;2.16;63.87;101875.47;4944934;28;97626;-76
2021/12/13 00:12:43;;;;;;;1999.90;999.90;;;;;;;2.18;64.16;101870.38;4951012;28;100658;-73
2021/12/13 00:15:14;;;;;;;1999.90;999.90;;;;;;;2.20;64.37;101873.97;4961942;28;98016;-75
2021/12/13 00:17:44;;;;;;;1999.90;999.90;;;;;;;2.22;64.07;101875.00;4943601;28;97190;-75
2021/12/13 00:20:15;;;;;;;1999.90;999.90;;;;;;;2.23;63.57;101873.28;4942889;28;100624;-73
2021/12/13 00:22:45;;;;;;;1999.90;999.90;;;;;;;2.25;63.72;101876.94;4960231;28;96972;-74
2021/12/13 00:25:17;;;;;;;1999.90;999.90;;;;;;;2.26;63.64;101877.06;4944124;28;97505;-73
2021/12/13 00:27:49;;;;;;;1999.90;999.90;;;;;;;2.26;63.80;101879.69;4945050;28;96907;-75
2021/12/13 00:30:22;;;;;;;1999.90;999.90;;;;;;;2.28;64.40;101871.91;4944646;28;100856;-73
2021/12/13 00:33:04;;;;;;;1999.90;999.90;;;;;;;2.30;64.25;101880.81;4946702;28;97650;-74
2021/12/13 00:35:37;;;;;;;1999.90;999.90;;;;;;;2.30;64.02;101881.72;4947651;28;96900;-75
2021/12/13 00:38:07;;;;;;;1999.90;999.90;;;;;;;2.30;64.16;101881.72;4946174;28;97035;-74
2021/12/13 00:40:38;;;;;;;1999.90;999.90;;;;;;;2.31;63.89;101880.91;4945514;28;99936;-75
2021/12/13 00:43:11;;;;;;;1999.90;999.90;;;;;;;2.34;64.41;101882.84;4944213;28;99537;-74
2021/12/13 00:45:42;;;;;;;1999.90;999.90;;;;;;;2.36;64.42;101891.75;4945742;28;97069;-75
2021/12/13 00:48:09;;;;;;;1999.90;999.90;;;;;;;2.35;64.69;101887.28;4944352;28;97625;-75
2021/12/13 00:50:40;;;;;;;1999.90;999.90;;;;;;;2.36;63.80;101895.31;4945989;28;98864;-74
2021/12/13 00:53:08;;;;;;;1999.90;999.90;;;;;;;2.36;64.17;101891.75;4944241;28;98874;-75
2021/12/13 00:55:37;;;;;;;1999.90;999.90;;;;;;;2.38;64.27;101895.41;4943652;28;97118;-73
2021/12/13 00:58:09;;;;;;;1999.90;999.90;;;;;;;2.40;64.41;101904.31;4927562;28;97148;-74
2021/12/13 01:00:41;;;;;;;1999.90;999.90;;;;;;;2.41;64.21;101907.06;4939742;28;99275;-75
2021/12/13 01:03:12;;;;;;;1999.90;999.90;;;;;;;2.44;64.33;101901.13;4943362;28;98645;-74
2021/12/13 01:06:28;;;;;;;1999.90;999.90;;;;;;;2.45;64.50;101908.19;4941984;28;98302;-74
2021/12/13 01:09:23;;;;;;;1999.90;999.90;;;;;;;2.46;64.16;101908.28;4938933;28;98632;-74
2021/12/13 01:11:54;;;;;;;1999.90;999.90;;;;;;;2.49;64.17;101912.84;4941895;28;100544;-73
2021/12/13 01:14:56;;;;;;;1999.90;999.90;;;;;;;2.47;64.42;101911.81;4943812;28;99221;-74
2021/12/13 01:17:40;;;;;;;1999.90;999.90;;;;;;;2.50;63.88;101918.22;4945360;28;97150;-74
2021/12/13 01:20:18;;;;;;;1999.90;999.90;;;;;;;2.51;64.29;101927.91;4945230;28;97079;-74
2021/12/13 01:22:53;;;;;;;1999.90;999.90;;;;;;;2.54;63.78;101928.16;4944670;28;98765;-72
2021/12/13 01:25:43;;;;;;;1999.90;999.90;;;;;;;2.56;64.28;101931.78;4918300;28;99013;-74
2021/12/13 01:28:20;;;;;;;1999.90;999.90;;;;;;;2.58;63.99;101929.28;4943185;28;98817;-74
2021/12/13 01:30:53;;;;;;;1999.90;999.90;;;;;;;2.57;63.52;101933.59;4942355;28;98201;-75
2021/12/13 01:33:22;;;;;;;1999.90;999.90;;;;;;;2.58;63.92;101932.81;4943394;28;99888;-73
2021/12/13 01:35:53;;;;;;;1999.90;999.90;;;;;;;2.58;64.00;101934.53;4942261;28;99592;-74
2021/12/13 01:38:31;;;;;;;1999.90;999.90;;;;;;;2.57;64.30;101937.94;4943596;28;97611;-75
2021/12/13 01:41:01;;;;;;;1999.90;999.90;;;;;;;2.54;63.87;101936.03;4959231;28;97535;-72
2021/12/13 01:43:31;;;;;;;1999.90;999.90;;;;;;;2.52;64.27;101934.06;4942406;28;97928;-74
2021/12/13 01:46:00;;;;;;;1999.90;999.90;;;;;;;2.51;64.39;101940.16;4942746;28;98885;-74
2021/12/13 01:48:31;;;;;;;1999.90;999.90;;;;;;;2.51;64.39;101940.16;4940840;28;97251;-74
2021/12/13 01:51:05;;;;;;;1999.90;999.90;;;;;;;2.50;64.30;101940.94;4942891;28;97985;-74
2021/12/13 01:53:39;;;;;;;1999.90;999.90;;;;;;;2.51;64.63;101941.03;4942524;28;99332;-73
2021/12/13 01:56:23;;;;;;;1999.90;999.90;;;;;;;2.53;64.03;101938.53;4943652;28;97940;-73
2021/12/13 01:58:52;;;;;;;1999.90;999.90;;;;;;;2.50;64.92;101933.06;4943513;28;97900;-74
2021/12/13 02:01:25;;;;;;;1999.90;999.90;;;;;;;2.47;64.83;101931.13;4929036;28;97412;-74
2021/12/13 02:03:57;;;;;;;1999.90;999.90;;;;;;;2.50;65.00;101938.31;4943717;28;101771;-74
2021/12/13 02:06:33;;;;;;;1999.90;999.90;;;;;;;2.52;64.46;101936.72;4945606;28;98932;-73
2021/12/13 02:09:05;;;;;;;1999.90;999.90;;;;;;;2.53;64.19;101933.28;4945531;28;97626;-74
2021/12/13 02:11:33;;;;;;;1999.90;999.90;;;;;;;2.54;64.57;101933.41;4945737;28;96786;-74
2021/12/13 02:14:08;;;;;;;1999.90;999.90;;;;;;;2.56;64.14;101936.13;4944020;28;99098;-74
2021/12/13 02:19:32;;;;;;;1999.90;999.90;;;;;;;2.57;64.12;101930.06;4945792;28;97336;-74
2021/12/13 02:22:37;;;;;;;1999.90;999.90;;;;;;;2.59;64.29;101932.00;4946625;28;97682;-74
2021/12/13 02:25:13;;;;;;;1999.90;999.90;;;;;;;2.59;64.11;101934.63;4884646;28;98790;-73
2021/12/13 02:27:43;;;;;;;1999.90;999.90;;;;;;;2.61;64.10;101934.72;4932579;28;97592;-75
2021/12/13 02:30:15;;;;;;;1999.90;999.90;;;;;;;2.61;64.49;101933.03;4945620;28;98687;-74
2021/12/13 02:32:44;;;;;;;1999.90;999.90;;;;;;;2.63;64.36;101935.75;4946692;28;98154;-74
2021/12/13 02:35:12;;;;;;;1999.90;999.90;;;;;;;2.63;64.51;101941.94;4955314;28;98906;-74
2021/12/13 02:37:42;;;;;;;1999.90;999.90;;;;;;;2.64;63.89;101937.56;4956446;28;97649;-74
2021/12/13 02:40:14;;;;;;;1999.90;999.90;;;;;;;2.65;64.64;101934.16;4948832;28;96863;-74
2021/12/13 02:42:42;;;;;;;1999.90;999.90;;;;;;;2.64;64.62;101927.06;4948551;28;96807;-74
2021/12/13 02:45:15;;;;;;;1999.90;999.90;;;;;;;2.67;64.23;101936.09;4944616;28;97912;-74
2021/12/13 02:47:48;;;;;;;1999.90;999.90;;;;;;;2.68;64.16;101939.63;4945729;28;99156;-73
2021/12/13 02:50:21;;;;;;;1999.90;999.90;;;;;;;2.67;64.42;101940.44;4946440;28;97382;-74
2021/12/13 02:52:52;;;;;;;1999.90;999.90;;;;;;;2.66;64.66;101946.47;4944956;28;97632;-74
2021/12/13 02:55:25;;;;;;;1999.90;999.90;;;;;;;2.67;64.64;101945.69;4929788;28;98111;-74
2021/12/13 02:57:54;;;;;;;1999.90;999.90;;;;;;;2.65;64.58;101942.97;4953653;28;96652;-74
2021/12/13 03:00:28;;;;;;;1999.90;999.90;;;;;;;2.67;64.38;101944.00;4954687;28;96738;-75
2021/12/13 03:03:00;;;;;;;1999.90;999.90;;;;;;;2.66;64.44;101939.50;4954141;28;98525;-74
2021/12/13 03:05:32;;;;;;;1999.90;999.90;;;;;;;2.67;64.77;101943.06;4958237;28;97841;-75
2021/12/13 03:08:04;;;;;;;1999.90;999.90;;;;;;;2.68;64.57;101937.91;4958274;28;97611;-76
2021/12/13 03:10:38;;;;;;;1999.90;999.90;;;;;;;2.69;65.04;101942.34;4972112;28;97068;-74
2021/12/13 03:13:07;;;;;;;1999.90;999.90;;;;;;;2.68;65.21;101942.25;4952417;28;96764;-74
2021/12/13 03:15:36;;;;;;;1999.90;999.90;;;;;;;2.66;65.03;101942.13;4935082;28;99948;-73
2021/12/13 03:18:11;;;;;;;1999.90;999.90;;;;;;;2.67;65.14;101948.31;4940760;28;98775;-75
2021/12/13 03:20:55;;;;;;;1999.90;999.90;;;;;;;2.67;64.89;101944.00;4940773;28;97144;-75
2021/12/13 03:23:27;;;;;;;1999.90;999.90;;;;;;;2.66;64.85;101949.09;4941455;28;97021;-75
2021/12/13 03:26:09;;;;;;;1999.90;999.90;;;;;;;2.65;66.06;101949.91;4939260;28;99672;-75
2021/12/13 03:28:55;;;;;;;1999.90;999.90;;;;;;;2.63;65.04;101944.56;4941712;28;98000;-74
2021/12/13 03:31:26;;;;;;;1999.90;999.90;;;;;;;2.64;65.43;101949.00;4939996;28;97251;-74
2021/12/13 03:34:01;;;;;;;1999.90;999.90;;;;;;;2.66;65.24;101951.72;4941154;28;97529;-74
2021/12/13 03:36:44;;;;;;;1999.90;999.90;;;;;;;2.70;65.85;101956.41;4942676;28;97678;-74
2021/12/13 03:39:15;;;;;;;1999.90;999.90;;;;;;;2.70;65.52;101954.69;4941645;28;99099;-75
2021/12/13 03:41:47;;;;;;;1999.90;999.90;;;;;;;2.72;65.18;101960.97;4941443;28;97777;-74
2021/12/13 03:44:17;;;;;;;1999.90;999.90;;;;;;;2.71;65.87;101967.03;4942829;28;96974;-75
2021/12/13 03:46:47;;;;;;;1999.90;999.90;;;;;;;2.73;65.68;101964.53;4941845;28;97964;-75
2021/12/13 03:49:16;;;;;;;1999.90;999.90;;;;;;;2.72;65.50;101962.69;4941085;28;100095;-75
2021/12/13 03:51:44;;;;;;;1999.90;999.90;;;;;;;2.73;65.95;101969.78;4942567;28;97738;-75
2021/12/13 03:54:16;;;;;;;1999.90;999.90;;;;;;;2.77;65.52;101966.56;4942458;28;97875;-75
2021/12/13 03:56:49;;;;;;;1999.90;999.90;;;;;;;2.77;65.66;101961.28;4939879;28;99721;-75
2021/12/13 03:59:22;;;;;;;1999.90;999.90;;;;;;;2.78;66.15;101971.94;4941748;28;97811;-75
2021/12/13 04:01:53;;;;;;;1999.90;999.90;;;;;;;2.80;65.42;101969.41;4929335;28;97498;-75
2021/12/13 04:04:23;;;;;;;1999.90;999.90;;;;;;;2.79;65.66;101971.13;4939300;28;97681;-74
2021/12/13 04:06:54;;;;;;;1999.90;999.90;;;;;;;2.80;65.58;101969.41;4945045;28;97647;-75
2021/12/13 04:09:24;;;;;;;1999.90;999.90;;;;;;;2.80;65.47;101975.56;4942538;28;100970;-75
2021/12/13 04:11:55;;;;;;;1999.90;999.90;;;;;;;2.81;65.87;101979.13;4942131;28;97269;-75
2021/12/13 04:14:29;;;;;;;1999.90;999.90;;;;;;;2.79;66.02;101972.84;4942787;28;97045;-75
2021/12/13 04:17:07;;;;;;;1999.90;999.90;;;;;;;2.80;65.83;101972.03;4942661;28;98435;-75
2021/12/13 04:19:45;;;;;;;1999.90;999.90;;;;;;;2.79;65.83;101975.47;4941804;28;98480;-75
2021/12/13 04:22:16;;;;;;;1999.90;999.90;;;;;;;2.80;65.59;101978.19;4943207;28;97707;-74
2021/12/13 04:24:47;;;;;;;1999.90;999.90;;;;;;;2.80;66.67;101974.69;4925350;28;96841;-76
2021/12/13 04:27:21;;;;;;;1999.90;999.90;;;;;;;2.81;66.05;101979.13;4939814;28;98283;-75
2021/12/13 04:29:51;;;;;;;1999.90;999.90;;;;;;;2.82;66.05;101987.09;4942885;28;99341;-72
2021/12/13 04:32:21;;;;;;;1999.90;999.90;;;;;;;2.82;65.92;101984.47;4942884;28;99414;-75
2021/12/13 04:34:52;;;;;;;1999.90;999.90;;;;;;;2.83;66.05;101988.94;4944233;28;98015;-75
2021/12/13 04:37:23;;;;;;;1999.90;999.90;;;;;;;2.84;65.88;101990.75;4940533;28;98114;-74
2021/12/13 04:39:53;;;;;;;1999.90;999.90;;;;;;;2.86;65.69;101988.22;4942654;28;96899;-75
2021/12/13 04:42:24;;;;;;;1999.90;999.90;;;;;;;2.87;65.66;101992.69;4942565;28;97905;-74
2021/12/13 04:44:56;;;;;;;1999.90;999.90;;;;;;;2.88;65.73;101995.44;4943769;28;97026;-75
2021/12/13 04:47:26;;;;;;;1999.90;999.90;;;;;;;2.87;65.80;101997.97;4941543;28;98510;-75
2021/12/13 04:50:01;;;;;;;1999.90;999.90;;;;;;;2.86;66.87;101998.75;4942308;28;98885;-75
2021/12/13 04:52:29;;;;;;;1999.90;999.90;;;;;;;2.87;65.98;102004.13;4934002;28;98833;-75
2021/12/13 04:54:57;;;;;;;1999.90;999.90;;;;;;;2.87;66.42;102003.22;4924078;28;98492;-74
2021/12/13 04:57:27;;;;;;;1999.90;999.90;;;;;;;2.85;66.58;102005.75;4942933;28;98842;-74
2021/12/13 04:59:58;;;;;;;1999.90;999.90;;;;;;;2.88;66.02;102002.41;4942592;28;99042;-75
2021/12/13 05:02:27;;;;;;;1999.90;999.90;;;;;;;2.89;65.76;102009.50;4938697;28;98195;-73
2021/12/13 05:04:56;;;;;;;1999.90;999.90;;;;;;;2.89;66.13;102005.13;4942097;28;97903;-75
2021/12/13 05:07:29;;;;;;;1999.90;999.90;;;;;;;2.88;66.08;102007.66;4941585;28;100379;-74
2021/12/13 05:09:57;;;;;;;1999.90;999.90;;;;;;;2.90;66.16;102013.94;4940138;28;99141;-75
2021/12/13 05:12:28;;;;;;;1999.90;999.90;;;;;;;2.88;66.30;102018.16;4941488;28;97308;-73
2021/12/13 05:15:00;;;;;;;1999.90;999.90;;;;;;;2.90;66.33;102024.44;4940074;28;97496;-74
2021/12/13 05:17:32;;;;;;;1999.90;999.90;;;;;;;2.89;66.72;102023.53;4939360;28;98794;-75
2021/12/13 05:20:10;;;;;;;1999.90;999.90;;;;;;;2.91;66.37;102024.56;4941998;28;100191;-74
2021/12/13 05:22:47;;;;;;;1999.90;999.90;;;;;;;2.94;66.05;102021.25;4940871;28;96875;-74
2021/12/13 05:25:22;;;;;;;1999.90;999.90;;;;;;;2.93;66.60;102022.06;4941759;28;96861;-75
2021/12/13 05:27:58;;;;;;;1999.90;999.90;;;;;;;2.92;66.52;102021.16;4942943;28;97692;-75
2021/12/13 05:30:27;;;;;;;1999.90;999.90;;;;;;;2.94;66.62;102024.81;4940342;28;98400;-75
2021/12/13 05:32:57;;;;;;;1999.90;999.90;;;;;;;2.94;66.47;102023.88;4942085;28;98629;-74
2021/12/13 05:35:28;;;;;;;1999.90;999.90;;;;;;;2.95;66.73;102030.94;4921525;28;100149;-75
2021/12/13 05:37:59;;;;;;;1999.90;999.90;;;;;;;2.98;66.51;102025.94;4938438;28;99268;-74
2021/12/13 05:40:35;;;;;;;1999.90;999.90;;;;;;;2.97;66.37;102025.00;4943434;28;98140;-75
2021/12/13 05:43:19;;;;;;;1999.90;999.90;;;;;;;3.33;65.73;102026.66;4936454;28;97664;-75
2021/12/13 05:45:50;;;;;;;1999.90;999.90;;;;;;;3.16;65.89;102028.16;4938489;28;97956;-74
2021/12/13 05:48:20;;;;;;;1999.90;999.90;;;;;;;3.13;65.95;102032.28;4939700;28;97639;-74
2021/12/13 05:50:50;;;;;;;1999.90;999.90;;;;;;;3.14;66.11;102031.47;4933518;28;98101;-74
2021/12/13 05:53:21;;;;;;;1999.90;999.90;;;;;;;3.11;66.66;102034.78;4924368;28;98717;-74
2021/12/13 05:55:55;;;;;;;1999.90;999.90;;;;;;;3.13;65.82;102042.81;4940771;28;100685;-74
2021/12/13 05:58:37;;;;;;;1999.90;999.90;;;;;;;3.12;67.07;102040.97;4942841;28;98774;-74
2021/12/13 06:01:12;;;;;;;1999.90;999.90;;;;;;;3.15;66.50;102047.34;4940404;28;99528;-73
2021/12/13 06:03:42;;;;;;;1999.90;999.90;;;;;;;3.15;66.69;102043.78;4937385;28;98170;-74
2021/12/13 06:06:13;;;;;;;1999.90;999.90;;;;;;;3.15;66.73;102042.09;4937023;28;97349;-74
2021/12/13 06:08:45;;;;;;;1999.90;999.90;;;;;;;3.12;66.99;102046.22;4940115;28;98633;-74
2021/12/13 06:11:17;;;;;;;1999.90;999.90;;;;;;;3.14;66.74;102049.88;4935072;28;100197;-73
2021/12/13 06:13:57;;;;;;;1999.90;999.90;;;;;;;3.09;66.95;102048.63;4942254;28;97750;-74
2021/12/13 06:16:43;;;;;;;1999.90;999.90;;;;;;;3.08;66.87;102052.97;4940066;28;97238;-73
2021/12/13 06:19:20;;;;;;;1999.90;999.90;;;;;;;3.13;66.69;102063.84;4938826;28;98504;-74
2021/12/13 06:21:55;;;;;;;1999.90;999.90;;;;;;;3.14;66.67;102057.75;4943001;28;97805;-74
2021/12/13 06:24:28;;;;;;;1999.90;999.90;;;;;;;3.16;66.66;102054.44;4940667;28;99304;-70
2021/12/13 06:27:07;;;;;;;1999.90;999.90;;;;;;;3.16;67.26;102054.44;4941563;28;97706;-71
2021/12/13 06:29:48;;;;;;;1999.90;999.90;;;;;;;3.20;67.21;102064.34;4940934;28;99312;-70
2021/12/13 06:32:24;;;;;;;1999.90;999.90;;;;;;;3.23;67.34;102068.94;4941101;28;97809;-74
2021/12/13 06:34:52;;;;;;;1999.90;999.90;;;;;;;3.23;66.99;102061.97;4939406;28;97668;-73
2021/12/13 06:37:25;;;;;;;1999.90;999.90;;;;;;;3.21;67.44;102057.38;4940780;28;98687;-73
2021/12/13 06:40:11;;;;;;;1999.90;999.90;;;;;;;3.24;67.48;102068.13;4940635;28;99799;-74
2021/12/13 06:42:39;;;;;;;1999.90;999.90;;;;;;;3.28;66.63;102070.16;4941629;28;98045;-73
2021/12/13 06:45:20;;;;;;;1999.90;999.90;;;;;;;3.27;67.20;102073.63;4942302;28;97655;-72
2021/12/13 06:47:50;;;;;;;1999.90;999.90;;;;;;;3.28;67.07;102080.69;4942141;28;97037;-74
2021/12/13 06:50:25;;;;;;;1999.90;999.90;;;;;;;3.31;66.67;102082.63;4941993;28;98884;-73
2021/12/13 06:52:53;;;;;;;1999.90;999.90;;;;;;;3.32;66.63;102082.75;4942763;28;97584;-74
2021/12/13 06:55:21;;;;;;;1999.90;999.90;;;;;;;3.33;66.73;102087.19;4914846;28;97753;-74
2021/12/13 06:57:54;;;;;;;1999.90;999.90;;;;;;;3.32;66.88;102088.00;4942213;28;100425;-74
2021/12/13 07:00:28;;;;;;;1999.90;999.90;;;;;;;3.33;66.63;102089.81;4942267;28;98883;-75
2021/12/13 07:02:58;;;;;;;1999.90;999.90;;;;;;;3.35;66.84;102092.56;4942340;28;97183;-74
2021/12/13 07:05:28;;;;;;;1999.90;999.90;;;;;;;3.36;66.89;102089.13;4943553;28;97984;-74
2021/12/13 07:08:00;;;;;;;1999.90;999.90;;;;;;;3.37;66.59;102097.13;4942693;28;98899;-73
2021/12/13 07:10:31;;;;;;;1999.90;999.90;;;;;;;3.41;66.74;102099.16;4940876;28;97939;-74
2021/12/13 07:13:02;;;;;;;1999.90;999.90;;;;;;;3.41;66.66;102107.06;4923964;28;100416;-74
2021/12/13 07:15:41;;;;;;;1999.90;999.90;;;;;;;3.42;66.74;102100.09;4941248;28;97826;-74
2021/12/13 07:18:16;;;;;;;1999.90;999.90;;;;;;;3.44;66.59;102104.63;4940617;28;97166;-74
2021/12/13 07:20:53;;;;;;;1999.90;999.90;;;;;;;3.45;66.77;102109.13;4913670;28;98491;-74
2021/12/13 07:23:21;;;;;;;1999.90;999.90;;;;;;;3.47;66.38;102110.13;4925105;28;99745;-74
2021/12/13 07:25:51;;;;;;;1999.90;999.90;;;;;;;3.51;66.68;102109.56;4925448;28;97891;-74
2021/12/13 07:28:32;;;;;;;1999.90;999.90;;;;;;;3.50;66.52;102115.59;4942428;28;97030;-74
2021/12/13 07:31:02;;;;;;;1999.90;999.90;;;;;;;3.54;66.60;102127.25;4941534;28;99404;-74
2021/12/13 07:33:36;;;;;;;1999.90;999.90;;;;;;;3.53;66.67;102121.06;4924594;28;98631;-73
2021/12/13 07:36:19;;;;;;;1999.90;999.90;;;;;;;3.54;66.84;102119.38;4941342;28;97470;-74
2021/12/13 07:38:48;;;;;;;1999.90;999.90;;;;;;;3.54;66.73;102132.53;4940449;28;97638;-74
2021/12/13 07:41:19;;;;;;;1999.90;999.90;;;;;;;3.54;66.97;102132.53;4928653;28;99458;-74
2021/12/13 07:43:47;;;;;;;1999.90;999.90;;;;;;;3.54;66.72;102135.16;4944284;28;100644;-73
2021/12/13 07:46:27;;;;;;;1999.90;999.90;;;;;;;3.53;66.65;102134.22;4946669;28;96776;-74
2021/12/13 07:48:58;;;;;;;1999.90;999.90;;;;;;;3.57;66.93;102148.56;4945499;28;97324;-73
2021/12/13 07:51:30;;;;;;;1999.90;999.90;;;;;;;3.58;66.65;102140.75;4944212;28;97007;-73
2021/12/13 07:54:03;;;;;;;1999.90;999.90;;;;;;;3.57;66.79;102149.44;4943950;28;98983;-74
2021/12/13 07:56:47;;;;;;;1999.90;999.90;;;;;;;3.57;66.63;102141.53;4944617;28;97291;-73
2021/12/13 07:59:18;;;;;;;1999.90;999.90;;;;;;;3.59;66.72;102152.19;4945271;28;97345;-74
2021/12/13 08:01:51;;;;;;;1999.90;999.90;;;;;;;3.63;66.56;102149.88;4945554;28;97697;-75
2021/12/13 08:04:22;;;;;;;1999.90;999.90;;;;;;;3.64;66.76;102154.34;4943877;28;101714;-74
2021/12/13 08:06:53;;;;;;;1999.90;999.90;;;;;;;3.65;66.54;102158.84;4943463;28;97398;-73
2021/12/13 08:09:22;;;;;;;1999.90;999.90;;;;;;;3.71;66.48;102156.66;4945586;28;96900;-74
2021/12/13 08:11:53;;;;;;;1999.90;999.90;;;;;;;3.73;66.54;102151.50;4945068;28;97609;-74
2021/12/13 08:14:28;;;;;;;1999.90;999.90;;;;;;;3.73;66.46;102160.28;4945486;28;97964;-74
2021/12/13 08:16:57;;;;;;;1999.90;999.90;;;;;;;3.72;66.78;102157.53;4942375;28;97698;-73
2021/12/13 08:19:28;;;;;;;1999.90;999.90;;;;;;;3.73;66.70;102152.38;4945024;28;98004;-74
2021/12/13 08:21:59;;;;;;;1999.90;999.90;;;;;;;3.75;66.46;102157.78;4944754;28;98911;-73
2021/12/13 08:24:30;;;;;;;1999.90;999.90;;;;;;;3.76;66.97;102164.84;4944265;28;100095;-74
2021/12/13 08:27:06;;;;;;;1999.90;999.90;;;;;;;3.77;66.68;102162.31;4944926;28;97106;-74
2021/12/13 08:29:37;;;;;;;1999.90;999.90;;;;;;;3.81;66.56;102161.75;4928070;28;97485;-73
2021/12/13 08:32:10;;;;;;;1999.90;999.90;;;;;;;3.78;66.62;102161.53;4927347;28;99410;-74
2021/12/13 08:34:40;;;;;;;1999.90;999.90;;;;;;;3.80;66.55;102167.84;4944422;28;97725;-74
2021/12/13 08:37:19;;;;;;;1999.90;999.90;;;;;;;3.80;66.69;102162.56;4927761;28;97201;-74
2021/12/13 08:39:51;;;;;;;1999.90;999.90;;;;;;;3.82;66.52;102171.50;4944476;28;97471;-74
2021/12/13 08:42:21;;;;;;;1999.90;999.90;;;;;;;3.83;66.46;102169.75;4943342;28;97963;-74
2021/12/13 08:44:56;;;;;;;1999.90;999.90;;;;;;;3.82;66.81;102179.38;4944002;28;99430;-74
2021/12/13 08:47:32;;;;;;;1999.90;999.90;;;;;;;3.83;66.57;102175.94;4945319;28;98037;-74
2021/12/13 08:50:03;;;;;;;1999.90;999.90;;;;;;;3.87;66.65;102180.63;4943540;28;98082;-74
2021/12/13 08:52:33;;;;;;;1999.90;999.90;;;;;;;3.89;66.45;102181.63;4933371;28;99046;-72
2021/12/13 08:55:05;;;;;;;1999.90;999.90;;;;;;;3.92;66.50;102181.84;4941918;28;98506;-74
2021/12/13 08:57:38;;;;;;;1999.90;999.90;;;;;;;3.92;66.66;102178.28;4943977;28;96798;-76
2021/12/13 09:00:19;;;;;;;1999.90;999.90;;;;;;;3.94;66.70;102182.88;4943726;28;97798;-73
2021/12/13 09:02:51;;;;;;;1999.90;999.90;;;;;;;3.98;66.64;102182.28;4916430;28;97858;-74
2021/12/13 09:05:23;;;;;;;1999.90;999.90;;;;;;;3.99;66.67;102189.34;4943441;28;99387;-73
2021/12/13 09:07:55;;;;;;;1999.90;999.90;;;;;;;4.02;66.37;102189.56;4927118;28;97957;-75
2021/12/13 09:10:40;;;;;;;1999.90;999.90;;;;;;;4.01;66.97;102187.75;4945098;28;97240;-74
2021/12/13 09:13:09;;;;;;;1999.90;999.90;;;;;;;4.03;66.81;102186.13;4943021;28;97919;-74
2021/12/13 09:15:38;;;;;;;1999.90;999.90;;;;;;;4.05;67.07;102191.50;4941903;28;100405;-74
2021/12/13 09:18:09;;;;;;;1999.90;999.90;;;;;;;4.05;66.66;102192.44;4926100;28;98748;-74
2021/12/13 09:20:41;;;;;;;1999.90;999.90;;;;;;;4.07;66.61;102196.09;4943801;28;97644;-74
2021/12/13 09:23:13;;;;;;;1999.90;999.90;;;;;;;4.07;66.97;102198.72;4941922;28;98461;-73
2021/12/13 09:25:44;;;;;;;1999.90;999.90;;;;;;;4.11;66.92;102195.50;4944247;28;98985;-73
2021/12/13 09:28:15;;;;;;;1999.90;999.90;;;;;;;4.13;66.57;102199.13;4927081;28;97652;-72
2021/12/13 09:30:45;;;;;;;1999.90;999.90;;;;;;;4.13;66.87;102204.41;4926954;28;97451;-75
2021/12/13 09:33:18;;;;;;;1999.90;999.90;;;;;;;4.16;67.09;102204.63;4926391;28;98253;-71
2021/12/13 09:35:53;;;;;;;1999.90;999.90;;;;;;;4.16;67.49;102203.69;4944341;28;98695;-73
2021/12/13 09:38:39;;;;;;;1999.90;999.90;;;;;;;4.17;67.00;102205.56;4941944;28;96848;-73
2021/12/13 09:41:18;;;;;;;1999.90;999.90;;;;;;;4.15;67.05;102207.16;4942827;28;97152;-74
2021/12/13 09:43:50;;;;;;;1999.90;999.90;;;;;;;4.18;66.68;102207.38;4940498;28;99273;-74
2021/12/13 09:46:20;;;;;;;1999.90;999.90;;;;;;;4.19;66.74;102211.81;4926465;28;100335;-73
2021/12/13 09:48:52;;;;;;;1999.90;999.90;;;;;;;4.18;66.86;102212.63;4944658;28;98518;-74
2021/12/13 09:51:22;;;;;;;1999.90;999.90;;;;;;;4.18;66.99;102210.91;4942609;28;97283;-75
2021/12/13 09:53:55;;;;;;;1999.90;999.90;;;;;;;4.21;66.89;102212.84;4940760;28;97848;-73
2021/12/13 09:56:27;;;;;;;1999.90;999.90;;;;;;;4.21;66.95;102212.84;4940268;28;99348;-75
2021/12/13 09:58:59;;;;;;;1999.90;999.90;;;;;;;4.22;66.92;102219.94;4941878;28;96960;-75
2021/12/13 10:01:29;;;;;;;1999.90;999.90;;;;;;;4.22;66.89;102214.69;4934005;28;97454;-74
2021/12/13 10:04:02;;;;;;;1999.90;999.90;;;;;;;4.22;66.93;102218.19;4941927;28;98634;-74
2021/12/13 10:06:35;;;;;;;1999.90;999.90;;;;;;;4.26;66.76;102213.16;4951624;28;100103;-73
2021/12/13 10:09:07;;;;;;;1999.90;999.90;;;;;;;4.30;66.63;102215.22;4942433;28;98092;-74
2021/12/13 10:11:37;;;;;;;1999.90;999.90;;;;;;;4.33;66.61;102208.44;4927156;28;96857;-75
2021/12/13 10:14:06;;;;;;;1999.90;999.90;;;;;;;4.35;66.80;102212.09;4943490;28;99729;-73
2021/12/13 10:16:42;;;;;;;1999.90;999.90;;;;;;;4.39;66.70;102213.22;4943124;28;97206;-73
2021/12/13 10:19:17;;;;;;;1999.90;999.90;;;;;;;4.42;66.50;102209.06;4942485;28;97824;-74
2021/12/13 10:21:47;;;;;;;1999.90;999.90;;;;;;;4.44;66.70;102209.16;4943638;28;97462;-73
2021/12/13 10:24:19;;;;;;;1999.90;999.90;;;;;;;4.42;66.73;102210.78;4922750;28;98326;-74
2021/12/13 10:26:48;;;;;;;1999.90;999.90;;;;;;;4.43;66.60;102210.88;4942476;28;98296;-74
2021/12/13 10:29:37;;;;;;;1999.90;999.90;;;;;;;4.44;66.69;102217.06;4943252;28;98460;-74
2021/12/13 10:32:07;;;;;;;1999.90;999.90;;;;;;;4.44;66.79;102206.53;4940902;28;97845;-73
2021/12/13 10:34:40;;;;;;;1999.90;999.90;;;;;;;4.45;66.75;102206.63;4942278;28;98385;-75
2021/12/13 10:37:11;;;;;;;1999.90;999.90;;;;;;;4.46;66.71;102205.84;4944928;28;98732;-74
2021/12/13 10:39:44;;;;;;;1999.90;999.90;;;;;;;4.49;66.58;102197.19;4944943;28;97538;-74
2021/12/13 10:42:14;;;;;;;1999.90;999.90;;;;;;;4.51;66.44;102203.50;4942899;28;97242;-73
2021/12/13 10:44:44;;;;;;;1999.90;999.90;;;;;;;4.49;66.94;102200.75;4942632;28;99278;-73
2021/12/13 10:47:16;;;;;;;1999.90;999.90;;;;;;;4.50;66.83;102201.69;4945182;28;97483;-74
2021/12/13 10:49:48;;;;;;;1999.90;999.90;;;;;;;4.53;66.51;102199.25;4944696;28;97362;-73
2021/12/13 10:52:21;;;;;;;1999.90;999.90;;;;;;;4.54;66.46;102194.06;4944376;28;97344;-74
2021/12/13 10:54:56;;;;;;;1999.90;999.90;;;;;;;4.57;66.39;102202.16;4931039;28;101298;-73
2021/12/13 10:57:26;;;;;;;1999.90;999.90;;;;;;;4.57;66.42;102199.53;4939558;22;99674;-72
2021/12/13 10:59:55;;;;;;;1999.90;999.90;;;;;;;4.58;66.72;102203.09;4934750;28;97904;-74
2021/12/13 11:02:29;;;;;;;1999.90;999.90;;;;;;;4.60;66.72;102198.84;5007170;22;101790;-73
2021/12/13 11:05:20;;;;;;;1999.90;999.90;;;;;;;4.62;66.73;102206.06;4944315;22;101667;-72
2021/12/13 11:07:49;;;;;;;1999.90;999.90;;;;;;;4.62;66.66;102207.78;4959149;22;97825;-71
2021/12/13 11:10:21;;;;;;;1999.90;999.90;;;;;;;4.63;66.66;102212.22;4938210;22;98548;-73
2021/12/13 11:12:55;;;;;;;1999.90;999.90;;;;;;;4.65;66.75;102202.69;4952173;28;97116;-72
2021/12/13 11:15:34;;;;;;;1999.90;999.90;;;;;;;4.62;66.97;102210.41;4956413;28;98713;-73
2021/12/13 11:18:05;;;;;;;1999.90;999.90;;;;;;;4.65;66.98;102207.97;4947794;22;98903;-71
2021/12/13 11:20:36;;;;;;;1999.90;999.90;;;;;;;4.67;66.73;102212.53;4913455;28;97657;-71
2021/12/13 11:23:06;;;;;;;1999.90;999.90;;;;;;;4.69;66.39;102210.00;4897783;28;97429;-71
2021/12/13 11:25:37;;;;;;;1999.90;999.90;;;;;;;4.70;66.33;102211.84;4894519;28;99786;-71